sensor_id;sensor_type;location;lat;lon;timestamp;pressure;altitude;pressure_sealevel;temperature;humidity
46718;BME280;32448;44.960;-0.698;2023-09-19T00:00:44;101713.97;;;16.67;100.00
46718;BME280;32448;44.960;-0.698;2023-09-19T00:03:20;101704.25;;;16.63;100.00
46718;BME280;32448;44.960;-0.698;2023-09-19T00:05:52;101717.44;;;16.62;100.00
46718;BME280;32448;44.960;-0.698;2023-09-19T00:08:19;101715.69;;;16.64;100.00
46718;BME280;32448;44.960;-0.698;2023-09-19T00:10:51;101705.94;;;16.60;100.00
46718;BME280;32448;44.960;-0.698;2023-09-19T00:13:18;101730.69;;;16.71;100.00
46718;BME280;32448;44.960;-0.698;2023-09-19T00:15:47;101742.13;;;16.71;100.00
46718;BME280;32448;44.960;-0.698;2023-09-19T00:18:20;101730.72;;;16.76;100.00
46718;BME280;32448;44.960;-0.698;2023-09-19T00:20:49;101734.34;;;16.90;100.00
46718;BME280;32448;44.960;-0.698;2023-09-19T00:23:20;101730.88;;;16.97;100.00
46718;BME280;32448;44.960;-0.698;2023-09-19T00:25:48;101731.75;;;16.97;100.00
46718;BME280;32448;44.960;-0.698;2023-09-19T00:28:15;101735.28;;;16.99;100.00
46718;BME280;32448;44.960;-0.698;2023-09-19T00:30:47;101719.38;;;16.90;100.00
46718;BME280;32448;44.960;-0.698;2023-09-19T00:33:18;101737.06;;;17.05;100.00
46718;BME280;32448;44.960;-0.698;2023-09-19T00:35:54;101728.25;;;17.00;100.00
46718;BME280;32448;44.960;-0.698;2023-09-19T00:38:22;101736.16;;;16.97;100.00
46718;BME280;32448;44.960;-0.698;2023-09-19T00:40:54;101751.19;;;17.07;100.00
46718;BME280;32448;44.960;-0.698;2023-09-19T00:43:27;101744.97;;;17.03;100.00
46718;BME280;32448;44.960;-0.698;2023-09-19T00:45:56;101750.25;;;17.03;100.00
46718;BME280;32448;44.960;-0.698;2023-09-19T00:48:25;101749.38;;;17.03;100.00
46718;BME280;32448;44.960;-0.698;2023-09-19T00:50:54;101750.28;;;17.05;100.00
46718;BME280;32448;44.960;-0.698;2023-09-19T00:53:25;101735.28;;;16.96;100.00
46718;BME280;32448;44.960;-0.698;2023-09-19T00:55:55;101750.25;;;17.02;100.00
46718;BME280;32448;44.960;-0.698;2023-09-19T00:58:24;101748.47;;;16.96;100.00
46718;BME280;32448;44.960;-0.698;2023-09-19T01:00:52;101742.28;;;16.93;100.00
46718;BME280;32448;44.960;-0.698;2023-09-19T01:03:20;101725.47;;;16.79;100.00
46718;BME280;32448;44.960;-0.698;2023-09-19T01:05:47;101730.72;;;16.76;100.00
46718;BME280;32448;44.960;-0.698;2023-09-19T01:08:14;101736.94;;;16.84;100.00
46718;BME280;32448;44.960;-0.698;2023-09-19T01:11:10;101724.59;;;16.77;100.00
46718;BME280;32448;44.960;-0.698;2023-09-19T01:13:56;101736.91;;;16.81;100.00
46718;BME280;32448;44.960;-0.698;2023-09-19T01:16:35;101737.75;;;16.73;100.00
46718;BME280;32448;44.960;-0.698;2023-09-19T01:28:15;101717.31;;;16.51;100.00
46718;BME280;32448;44.960;-0.698;2023-09-19T01:30:57;101740.38;;;16.67;100.00
46718;BME280;32448;44.960;-0.698;2023-09-19T01:33:54;101748.34;;;16.81;100.00
46718;BME280;32448;44.960;-0.698;2023-09-19T01:36:32;101741.25;;;16.72;100.00
46718;BME280;32448;44.960;-0.698;2023-09-19T01:39:09;101731.56;;;16.70;100.00
46718;BME280;32448;44.960;-0.698;2023-09-19T01:41:54;101743.94;;;16.77;100.00
46718;BME280;32448;44.960;-0.698;2023-09-19T01:44:36;101743.00;;;16.70;100.00
46718;BME280;32448;44.960;-0.698;2023-09-19T01:47:17;101725.28;;;16.59;100.00
46718;BME280;32448;44.960;-0.698;2023-09-19T01:52:30;101752.69;;;16.67;100.00
46718;BME280;32448;44.960;-0.698;2023-09-19T01:55:06;101729.56;;;16.46;100.00
46718;BME280;32448;44.960;-0.698;2023-09-19T01:57:45;101755.22;;;16.61;100.00
46718;BME280;32448;44.960;-0.698;2023-09-19T02:00:18;101746.41;;;16.60;100.00
46718;BME280;32448;44.960;-0.698;2023-09-19T02:02:47;101750.00;;;16.62;100.00
46718;BME280;32448;44.960;-0.698;2023-09-19T02:05:23;101743.81;;;16.62;100.00
46718;BME280;32448;44.960;-0.698;2023-09-19T02:07:55;101736.72;;;16.55;100.00
46718;BME280;32448;44.960;-0.698;2023-09-19T02:10:22;101752.53;;;16.58;100.00
46718;BME280;32448;44.960;-0.698;2023-09-19T02:12:50;101758.72;;;16.57;100.00
46718;BME280;32448;44.960;-0.698;2023-09-19T02:15:18;101748.97;;;16.50;100.00
46718;BME280;32448;44.960;-0.698;2023-09-19T02:17:45;101741.03;;;16.45;100.00
46718;BME280;32448;44.960;-0.698;2023-09-19T02:20:13;101735.75;;;16.45;100.00
46718;BME280;32448;44.960;-0.698;2023-09-19T02:22:44;101736.56;;;16.39;100.00
46718;BME280;32448;44.960;-0.698;2023-09-19T02:25:11;101720.59;;;16.23;100.00
46718;BME280;32448;44.960;-0.698;2023-09-19T02:27:41;101745.31;;;16.32;100.00
46718;BME280;32448;44.960;-0.698;2023-09-19T02:30:09;101733.84;;;16.29;100.00
46718;BME280;32448;44.960;-0.698;2023-09-19T02:32:37;101736.47;;;16.27;100.00
46718;BME280;32448;44.960;-0.698;2023-09-19T02:35:06;101739.03;;;16.18;100.00
46718;BME280;32448;44.960;-0.698;2023-09-19T02:37:34;101739.06;;;16.21;100.00
46718;BME280;32448;44.960;-0.698;2023-09-19T02:40:03;101732.03;;;16.22;100.00
46718;BME280;32448;44.960;-0.698;2023-09-19T02:42:49;101726.78;;;16.23;100.00
46718;BME280;32448;44.960;-0.698;2023-09-19T02:45:22;101732.91;;;16.22;100.00
46718;BME280;32448;44.960;-0.698;2023-09-19T02:47:50;101733.81;;;16.26;100.00
46718;BME280;32448;44.960;-0.698;2023-09-19T02:50:17;101732.91;;;16.25;100.00
46718;BME280;32448;44.960;-0.698;2023-09-19T02:52:45;101732.94;;;16.28;100.00
46718;BME280;32448;44.960;-0.698;2023-09-19T02:55:17;101724.13;;;16.26;100.00
46718;BME280;32448;44.960;-0.698;2023-09-19T02:57:49;101730.31;;;16.28;100.00
46718;BME280;32448;44.960;-0.698;2023-09-19T03:00:19;101722.31;;;16.18;100.00
46718;BME280;32448;44.960;-0.698;2023-09-19T03:02:54;101719.66;;;16.16;100.00
46718;BME280;32448;44.960;-0.698;2023-09-19T03:05:23;101710.75;;;16.05;100.00
46718;BME280;32448;44.960;-0.698;2023-09-19T03:07:52;101730.16;;;16.13;100.00
46718;BME280;32448;44.960;-0.698;2023-09-19T03:10:20;101732.81;;;16.12;100.00
46718;BME280;32448;44.960;-0.698;2023-09-19T03:12:48;101719.56;;;16.07;100.00
46718;BME280;32448;44.960;-0.698;2023-09-19T03:15:17;101723.91;;;16.02;100.00
46718;BME280;32448;44.960;-0.698;2023-09-19T03:17:48;101723.81;;;15.93;100.00
46718;BME280;32448;44.960;-0.698;2023-09-19T03:20:20;101724.75;;;15.98;100.00
46718;BME280;32448;44.960;-0.698;2023-09-19T03:22:49;101722.03;;;15.89;100.00
46718;BME280;32448;44.960;-0.698;2023-09-19T03:25:16;101719.31;;;15.83;100.00
46718;BME280;32448;44.960;-0.698;2023-09-19T03:27:48;101726.34;;;15.84;100.00
46718;BME280;32448;44.960;-0.698;2023-09-19T03:30:16;101716.63;;;15.77;100.00
46718;BME280;32448;44.960;-0.698;2023-09-19T03:32:47;101701.56;;;15.65;100.00
46718;BME280;32448;44.960;-0.698;2023-09-19T03:35:18;101724.44;;;15.71;100.00
46718;BME280;32448;44.960;-0.698;2023-09-19T03:37:46;101718.22;;;15.62;100.00
46718;BME280;32448;44.960;-0.698;2023-09-19T03:40:14;101695.16;;;15.45;100.00
46718;BME280;32448;44.960;-0.698;2023-09-19T03:42:43;101720.78;;;15.58;100.00
46718;BME280;32448;44.960;-0.698;2023-09-19T03:45:12;101719.75;;;15.47;100.00
46718;BME280;32448;44.960;-0.698;2023-09-19T03:47:45;101735.66;;;15.53;100.00
46718;BME280;32448;44.960;-0.698;2023-09-19T03:50:18;101724.97;;;15.42;100.00
46718;BME280;32448;44.960;-0.698;2023-09-19T03:52:45;101728.50;;;15.43;100.00
46718;BME280;32448;44.960;-0.698;2023-09-19T03:55:12;101724.97;;;15.42;100.00
46718;BME280;32448;44.960;-0.698;2023-09-19T03:57:48;101724.91;;;15.38;100.00
46718;BME280;32448;44.960;-0.698;2023-09-19T04:00:16;101714.28;;;15.30;100.00
46718;BME280;32448;44.960;-0.698;2023-09-19T04:02:48;101716.84;;;15.24;100.00
46718;BME280;32448;44.960;-0.698;2023-09-19T04:05:16;101691.22;;;15.14;100.00
46718;BME280;32448;44.960;-0.698;2023-09-19T04:07:47;101719.34;;;15.16;100.00
46718;BME280;32448;44.960;-0.698;2023-09-19T04:10:22;101718.47;;;15.13;100.00
46718;BME280;32448;44.960;-0.698;2023-09-19T04:12:53;101717.56;;;15.12;100.00
46718;BME280;32448;44.960;-0.698;2023-09-19T04:15:22;101721.94;;;15.12;100.00
46718;BME280;32448;44.960;-0.698;2023-09-19T04:17:52;101713.00;;;14.99;100.00
46718;BME280;32448;44.960;-0.698;2023-09-19T04:20:20;101713.81;;;14.97;100.00
46718;BME280;32448;44.960;-0.698;2023-09-19T04:22:50;101713.84;;;14.98;100.00
46718;BME280;32448;44.960;-0.698;2023-09-19T04:25:17;101718.13;;;14.91;100.00
46718;BME280;32448;44.960;-0.698;2023-09-19T04:27:45;101711.88;;;14.83;100.00
46718;BME280;32448;44.960;-0.698;2023-09-19T04:30:13;101698.63;;;14.76;100.00
46718;BME280;32448;44.960;-0.698;2023-09-19T04:32:41;101695.88;;;14.68;100.00
46718;BME280;32448;44.960;-0.698;2023-09-19T04:35:09;101712.72;;;14.79;100.00
46718;BME280;32448;44.960;-0.698;2023-09-19T04:37:38;101706.47;;;14.73;100.00
46718;BME280;32448;44.960;-0.698;2023-09-19T04:40:10;101715.22;;;14.72;100.00
46718;BME280;32448;44.960;-0.698;2023-09-19T04:42:41;101715.13;;;14.66;100.00
46718;BME280;32448;44.960;-0.698;2023-09-19T04:45:09;101721.31;;;14.69;100.00
46718;BME280;32448;44.960;-0.698;2023-09-19T04:47:37;101717.72;;;14.63;100.00
46718;BME280;32448;44.960;-0.698;2023-09-19T04:50:10;101730.00;;;14.64;100.00
46718;BME280;32448;44.960;-0.698;2023-09-19T04:52:42;101695.53;;;14.45;100.00
46718;BME280;32448;44.960;-0.698;2023-09-19T04:55:13;101696.41;;;14.47;100.00
46718;BME280;32448;44.960;-0.698;2023-09-19T04:57:47;101730.91;;;14.66;100.00
46718;BME280;32448;44.960;-0.698;2023-09-19T05:02:44;101694.66;;;14.46;100.00
46718;BME280;32448;44.960;-0.698;2023-09-19T05:05:12;101718.47;;;14.55;100.00
46718;BME280;32448;44.960;-0.698;2023-09-19T05:07:45;101722.84;;;14.55;100.00
46718;BME280;32448;44.960;-0.698;2023-09-19T05:10:13;101721.94;;;14.53;100.00
46718;BME280;32448;44.960;-0.698;2023-09-19T05:12:41;101720.97;;;14.48;100.00
46718;BME280;32448;44.960;-0.698;2023-09-19T05:15:09;101722.72;;;14.46;100.00
46718;BME280;32448;44.960;-0.698;2023-09-19T05:17:36;101721.84;;;14.45;100.00
46718;BME280;32448;44.960;-0.698;2023-09-19T05:20:04;101712.88;;;14.37;100.00
46718;BME280;32448;44.960;-0.698;2023-09-19T05:22:42;101726.03;;;14.37;100.00
46718;BME280;32448;44.960;-0.698;2023-09-19T05:25:10;101723.31;;;14.31;100.00
46718;BME280;32448;44.960;-0.698;2023-09-19T05:27:38;101730.31;;;14.31;100.00
46718;BME280;32448;44.960;-0.698;2023-09-19T05:30:06;101726.81;;;14.32;100.00
46718;BME280;32448;44.960;-0.698;2023-09-19T05:32:34;101738.22;;;14.32;100.00
46718;BME280;32448;44.960;-0.698;2023-09-19T05:35:01;101733.69;;;14.25;100.00
46718;BME280;32448;44.960;-0.698;2023-09-19T05:37:28;101734.59;;;14.24;100.00
46718;BME280;32448;44.960;-0.698;2023-09-19T05:39:56;101744.13;;;14.19;100.00
46718;BME280;32448;44.960;-0.698;2023-09-19T05:42:24;101736.16;;;14.13;100.00
46718;BME280;32448;44.960;-0.698;2023-09-19T05:44:52;101733.50;;;14.14;100.00
46718;BME280;32448;44.960;-0.698;2023-09-19T05:47:19;101735.13;;;14.06;100.00
46718;BME280;32448;44.960;-0.698;2023-09-19T05:49:47;101747.34;;;14.04;100.00
46718;BME280;32448;44.960;-0.698;2023-09-19T05:52:16;101742.00;;;13.98;100.00
46718;BME280;32448;44.960;-0.698;2023-09-19T05:54:45;101756.16;;;14.06;100.00
46718;BME280;32448;44.960;-0.698;2023-09-19T05:57:12;101754.38;;;14.05;100.00
46718;BME280;32448;44.960;-0.698;2023-09-19T05:59:39;101760.44;;;14.00;100.00
46718;BME280;32448;44.960;-0.698;2023-09-19T06:02:07;101749.81;;;13.95;100.00
46718;BME280;32448;44.960;-0.698;2023-09-19T06:04:36;101750.56;;;13.88;100.00
46718;BME280;32448;44.960;-0.698;2023-09-19T06:07:03;101740.13;;;13.91;100.00
46718;BME280;32448;44.960;-0.698;2023-09-19T06:09:31;101739.25;;;13.91;100.00
46718;BME280;32448;44.960;-0.698;2023-09-19T06:11:59;101724.16;;;13.80;100.00
46718;BME280;32448;44.960;-0.698;2023-09-19T06:14:31;101751.47;;;13.89;100.00
46718;BME280;32448;44.960;-0.698;2023-09-19T06:16:59;101749.66;;;13.86;100.00
46718;BME280;32448;44.960;-0.698;2023-09-19T06:19:27;101738.19;;;13.82;100.00
46718;BME280;32448;44.960;-0.698;2023-09-19T06:21:54;101744.47;;;13.89;100.00
46718;BME280;32448;44.960;-0.698;2023-09-19T06:24:22;101746.97;;;13.83;100.00
46718;BME280;32448;44.960;-0.698;2023-09-19T06:26:49;101749.63;;;13.84;100.00
46718;BME280;32448;44.960;-0.698;2023-09-19T06:29:17;101747.75;;;13.77;100.00
46718;BME280;32448;44.960;-0.698;2023-09-19T06:31:44;101739.88;;;13.79;100.00
46718;BME280;32448;44.960;-0.698;2023-09-19T06:34:12;101746.09;;;13.84;100.00
46718;BME280;32448;44.960;-0.698;2023-09-19T06:36:41;101744.16;;;13.74;100.00
46718;BME280;32448;44.960;-0.698;2023-09-19T06:39:08;101743.38;;;13.78;100.00
46718;BME280;32448;44.960;-0.698;2023-09-19T06:41:38;101751.22;;;13.76;100.00
46718;BME280;32448;44.960;-0.698;2023-09-19T06:44:10;101751.25;;;13.78;100.00
46718;BME280;32448;44.960;-0.698;2023-09-19T06:46:37;101756.75;;;13.90;100.00
46718;BME280;32448;44.960;-0.698;2023-09-19T06:49:08;101754.13;;;13.90;100.00
46718;BME280;32448;44.960;-0.698;2023-09-19T06:51:37;101740.91;;;13.87;100.00
46718;BME280;32448;44.960;-0.698;2023-09-19T06:54:05;101757.75;;;13.97;100.00
46718;BME280;32448;44.960;-0.698;2023-09-19T06:56:32;101758.53;;;13.93;100.00
46718;BME280;32448;44.960;-0.698;2023-09-19T06:58:59;101755.94;;;13.94;100.00
46718;BME280;32448;44.960;-0.698;2023-09-19T07:01:28;101757.53;;;13.86;100.00
46718;BME280;32448;44.960;-0.698;2023-09-19T07:03:55;101747.06;;;13.88;100.00
46718;BME280;32448;44.960;-0.698;2023-09-19T07:06:23;101758.66;;;13.99;100.00
46718;BME280;32448;44.960;-0.698;2023-09-19T07:08:51;101769.31;;;14.06;100.00
46718;BME280;32448;44.960;-0.698;2023-09-19T07:11:18;101765.78;;;14.06;100.00
46718;BME280;32448;44.960;-0.698;2023-09-19T07:13:47;101758.06;;;14.15;100.00
46718;BME280;32448;44.960;-0.698;2023-09-19T07:16:14;101758.06;;;14.15;100.00
46718;BME280;32448;44.960;-0.698;2023-09-19T07:18:55;101757.19;;;14.14;100.00
46718;BME280;32448;44.960;-0.698;2023-09-19T07:21:24;101751.09;;;14.17;100.00
46718;BME280;32448;44.960;-0.698;2023-09-19T07:23:51;101753.75;;;14.18;100.00
46718;BME280;32448;44.960;-0.698;2023-09-19T07:26:19;101772.44;;;14.34;100.00
46718;BME280;32448;44.960;-0.698;2023-09-19T07:28:46;101754.97;;;14.36;100.00
46718;BME280;32448;44.960;-0.698;2023-09-19T07:31:13;101751.53;;;14.40;100.00
46718;BME280;32448;44.960;-0.698;2023-09-19T07:33:42;101754.31;;;14.49;100.00
46718;BME280;32448;44.960;-0.698;2023-09-19T07:36:10;101763.19;;;14.54;100.00
46718;BME280;32448;44.960;-0.698;2023-09-19T07:38:40;101757.94;;;14.55;100.00
46718;BME280;32448;44.960;-0.698;2023-09-19T07:41:08;101757.16;;;14.61;100.00
46718;BME280;32448;44.960;-0.698;2023-09-19T07:43:36;101731.63;;;14.55;100.00
46718;BME280;32448;44.960;-0.698;2023-09-19T07:46:07;101769.75;;;14.82;100.00
46718;BME280;32448;44.960;-0.698;2023-09-19T07:48:36;101760.97;;;14.81;100.00
46718;BME280;32448;44.960;-0.698;2023-09-19T07:51:05;101759.38;;;14.89;100.00
46718;BME280;32448;44.960;-0.698;2023-09-19T07:53:35;101776.22;;;15.04;100.00
46718;BME280;32448;44.960;-0.698;2023-09-19T07:56:05;101759.69;;;15.11;100.00
46718;BME280;32448;44.960;-0.698;2023-09-19T07:58:33;101764.16;;;15.18;100.00
46718;BME280;32448;44.960;-0.698;2023-09-19T08:01:07;101767.75;;;15.24;100.00
46718;BME280;32448;44.960;-0.698;2023-09-19T08:03:35;101747.53;;;15.20;100.00
46718;BME280;32448;44.960;-0.698;2023-09-19T08:06:08;101768.78;;;15.34;100.00
46718;BME280;32448;44.960;-0.698;2023-09-19T08:08:36;101795.31;;;15.49;100.00
46718;BME280;32448;44.960;-0.698;2023-09-19T08:11:07;101789.53;;;15.75;100.00
46718;BME280;32448;44.960;-0.698;2023-09-19T08:13:39;101794.00;;;15.82;100.00
46718;BME280;32448;44.960;-0.698;2023-09-19T08:16:16;101788.00;;;15.95;100.00
46718;BME280;32448;44.960;-0.698;2023-09-19T08:18:48;101799.59;;;16.09;100.00
46718;BME280;32448;44.960;-0.698;2023-09-19T08:21:22;101794.34;;;16.14;100.00
46718;BME280;32448;44.960;-0.698;2023-09-19T08:23:51;101793.59;;;16.22;100.00
46718;BME280;32448;44.960;-0.698;2023-09-19T08:26:19;101805.19;;;16.39;100.00
46718;BME280;32448;44.960;-0.698;2023-09-19T08:28:46;101802.63;;;16.46;100.00
46718;BME280;32448;44.960;-0.698;2023-09-19T08:31:15;101800.94;;;16.55;100.00
46718;BME280;32448;44.960;-0.698;2023-09-19T08:33:44;101807.19;;;16.63;100.00
46718;BME280;32448;44.960;-0.698;2023-09-19T08:36:16;101812.50;;;16.65;100.00
46718;BME280;32448;44.960;-0.698;2023-09-19T08:38:44;101799.31;;;16.69;100.00
46718;BME280;32448;44.960;-0.698;2023-09-19T08:41:11;101814.38;;;16.78;100.00
46718;BME280;32448;44.960;-0.698;2023-09-19T08:43:39;101815.41;;;16.98;100.00
46718;BME280;32448;44.960;-0.698;2023-09-19T08:46:11;101815.41;;;17.01;100.00
46718;BME280;32448;44.960;-0.698;2023-09-19T08:48:54;101811.88;;;16.99;100.00
46718;BME280;32448;44.960;-0.698;2023-09-19T08:51:38;101824.22;;;17.00;100.00
46718;BME280;32448;44.960;-0.698;2023-09-19T08:54:08;101819.78;;;16.96;100.00
46718;BME280;32448;44.960;-0.698;2023-09-19T08:56:38;101820.75;;;17.07;100.00
46718;BME280;32448;44.960;-0.698;2023-09-19T08:59:07;101823.34;;;17.04;100.00
46718;BME280;32448;44.960;-0.698;2023-09-19T09:01:38;101812.84;;;17.09;100.00
46718;BME280;32448;44.960;-0.698;2023-09-19T09:04:09;101809.31;;;17.13;100.00
46718;BME280;32448;44.960;-0.698;2023-09-19T09:06:42;101810.25;;;17.20;100.00
46718;BME280;32448;44.960;-0.698;2023-09-19T09:09:12;101805.00;;;17.26;100.00
46718;BME280;32448;44.960;-0.698;2023-09-19T09:11:40;101817.34;;;17.28;100.00
46718;BME280;32448;44.960;-0.698;2023-09-19T09:14:11;101809.44;;;17.28;100.00
46718;BME280;32448;44.960;-0.698;2023-09-19T09:16:39;101815.69;;;17.44;100.00
46718;BME280;32448;44.960;-0.698;2023-09-19T09:19:06;101816.63;;;17.52;100.00
46718;BME280;32448;44.960;-0.698;2023-09-19T09:21:34;101823.69;;;17.59;100.00
46718;BME280;32448;44.960;-0.698;2023-09-19T09:24:26;101821.03;;;17.58;100.00
46718;BME280;32448;44.960;-0.698;2023-09-19T09:26:58;101811.38;;;17.61;100.00
46718;BME280;32448;44.960;-0.698;2023-09-19T09:29:43;101814.06;;;17.69;100.00
46718;BME280;32448;44.960;-0.698;2023-09-19T09:32:27;101805.31;;;17.77;100.00
46718;BME280;32448;44.960;-0.698;2023-09-19T09:34:57;101800.91;;;17.76;100.00
46718;BME280;32448;44.960;-0.698;2023-09-19T09:37:28;101811.50;;;17.86;100.00
46718;BME280;32448;44.960;-0.698;2023-09-19T09:39:59;101796.50;;;17.81;100.00
46718;BME280;32448;44.960;-0.698;2023-09-19T09:42:45;101800.03;;;17.90;100.00
46718;BME280;32448;44.960;-0.698;2023-09-19T09:45:20;101801.00;;;18.13;100.00
46718;BME280;32448;44.960;-0.698;2023-09-19T09:47:56;101786.88;;;18.08;100.00
46718;BME280;32448;44.960;-0.698;2023-09-19T09:50:31;101771.00;;;18.03;100.00
46718;BME280;32448;44.960;-0.698;2023-09-19T09:53:19;101783.34;;;18.13;100.00
46718;BME280;32448;44.960;-0.698;2023-09-19T09:56:05;101783.38;;;18.18;100.00
46718;BME280;32448;44.960;-0.698;2023-09-19T09:58:37;101755.13;;;18.06;100.00
46718;BME280;32448;44.960;-0.698;2023-09-19T10:01:07;101757.78;;;18.12;100.00
46718;BME280;32448;44.960;-0.698;2023-09-19T10:03:42;101771.91;;;18.27;100.00
46718;BME280;32448;44.960;-0.698;2023-09-19T10:06:15;101753.41;;;18.48;100.00
46718;BME280;32448;44.960;-0.698;2023-09-19T10:09:02;101776.38;;;18.60;100.00
46718;BME280;32448;44.960;-0.698;2023-09-19T10:11:34;101760.50;;;18.60;100.00
46718;BME280;32448;44.960;-0.698;2023-09-19T10:14:04;101769.31;;;18.69;100.00
46718;BME280;32448;44.960;-0.698;2023-09-19T10:16:36;101764.88;;;19.02;100.00
46718;BME280;32448;44.960;-0.698;2023-09-19T10:19:07;101745.47;;;18.95;100.00
46718;BME280;32448;44.960;-0.698;2023-09-19T10:21:40;101748.06;;;19.19;100.00
46718;BME280;32448;44.960;-0.698;2023-09-19T10:24:08;101733.81;;;19.45;100.00
46718;BME280;32448;44.960;-0.698;2023-09-19T10:26:36;101740.00;;;19.54;100.00
46718;BME280;32448;44.960;-0.698;2023-09-19T10:29:06;101738.19;;;19.61;100.00
46718;BME280;32448;44.960;-0.698;2023-09-19T10:31:35;101713.25;;;19.89;100.00
46718;BME280;32448;44.960;-0.698;2023-09-19T10:34:08;101705.16;;;20.12;100.00
46718;BME280;32448;44.960;-0.698;2023-09-19T10:36:37;101711.31;;;20.17;100.00
46718;BME280;32448;44.960;-0.698;2023-09-19T10:39:08;101697.91;;;20.35;100.00
46718;BME280;32448;44.960;-0.698;2023-09-19T10:41:37;101704.03;;;20.44;100.00
46718;BME280;32448;44.960;-0.698;2023-09-19T10:44:05;101704.88;;;20.49;100.00
46718;BME280;32448;44.960;-0.698;2023-09-19T10:46:33;101704.78;;;20.58;100.00
46718;BME280;32448;44.960;-0.698;2023-09-19T10:49:01;101680.69;;;20.78;100.00
46718;BME280;32448;44.960;-0.698;2023-09-19T10:51:33;101680.69;;;20.78;100.00
46718;BME280;32448;44.960;-0.698;2023-09-19T10:54:10;101695.56;;;20.97;100.00
46718;BME280;32448;44.960;-0.698;2023-09-19T10:56:47;101699.00;;;21.06;100.00
46718;BME280;32448;44.960;-0.698;2023-09-19T10:59:17;101683.56;;;21.39;100.00
46718;BME280;32448;44.960;-0.698;2023-09-19T11:01:53;101672.63;;;21.59;100.00
46718;BME280;32448;44.960;-0.698;2023-09-19T11:04:26;101660.88;;;21.75;100.00
46718;BME280;32448;44.960;-0.698;2023-09-19T11:07:12;101650.31;;;21.67;100.00
46718;BME280;32448;44.960;-0.698;2023-09-19T11:26:44;101654.00;;;21.59;100.00
46718;BME280;32448;44.960;-0.698;2023-09-19T11:29:28;101652.13;;;21.65;100.00
46718;BME280;32448;44.960;-0.698;2023-09-19T11:31:58;101658.41;;;21.61;100.00
46718;BME280;32448;44.960;-0.698;2023-09-19T11:34:42;101675.22;;;21.65;100.00
46718;BME280;32448;44.960;-0.698;2023-09-19T11:42:47;101640.66;;;21.63;100.00
46718;BME280;32448;44.960;-0.698;2023-09-19T11:48:18;101647.69;;;22.23;100.00
46718;BME280;32448;44.960;-0.698;2023-09-19T11:50:45;101621.56;;;22.43;100.00
46718;BME280;32448;44.960;-0.698;2023-09-19T11:53:14;101649.47;;;22.73;100.00
46718;BME280;32448;44.960;-0.698;2023-09-19T11:55:43;101641.13;;;22.91;100.00
46718;BME280;32448;44.960;-0.698;2023-09-19T11:58:14;101627.50;;;23.06;100.00
46718;BME280;32448;44.960;-0.698;2023-09-19T12:00:54;101600.66;;;23.12;100.00
46718;BME280;32448;44.960;-0.698;2023-09-19T12:03:22;101608.22;;;23.32;100.00
46718;BME280;32448;44.960;-0.698;2023-09-19T12:05:50;101619.41;;;23.49;100.00
46718;BME280;32448;44.960;-0.698;2023-09-19T12:08:19;101605.88;;;23.58;100.00
46718;BME280;32448;44.960;-0.698;2023-09-19T12:10:49;101607.00;;;23.50;100.00
46718;BME280;32448;44.960;-0.698;2023-09-19T12:13:18;101608.88;;;23.43;100.00
46718;BME280;32448;44.960;-0.698;2023-09-19T12:15:46;101606.56;;;23.28;100.00
46718;BME280;32448;44.960;-0.698;2023-09-19T12:18:27;101614.78;;;23.19;100.00
46718;BME280;32448;44.960;-0.698;2023-09-19T12:20:55;101616.00;;;23.03;100.00
46718;BME280;32448;44.960;-0.698;2023-09-19T12:23:24;101616.28;;;22.89;100.00
46718;BME280;32448;44.960;-0.698;2023-09-19T12:25:55;101620.84;;;22.84;100.00
46718;BME280;32448;44.960;-0.698;2023-09-19T12:28:26;101602.66;;;22.58;100.00
46718;BME280;32448;44.960;-0.698;2023-09-19T12:30:55;101618.69;;;22.55;100.00
46718;BME280;32448;44.960;-0.698;2023-09-19T12:33:23;101605.53;;;22.46;100.00
46718;BME280;32448;44.960;-0.698;2023-09-19T12:35:53;101618.59;;;22.61;100.00
46718;BME280;32448;44.960;-0.698;2023-09-19T12:38:27;101580.44;;;22.58;100.00
46718;BME280;32448;44.960;-0.698;2023-09-19T12:40:58;101598.72;;;22.79;100.00
46718;BME280;32448;44.960;-0.698;2023-09-19T12:43:31;101564.63;;;22.95;100.00
46718;BME280;32448;44.960;-0.698;2023-09-19T12:46:03;101569.81;;;23.01;100.00
46718;BME280;32448;44.960;-0.698;2023-09-19T12:48:32;101578.47;;;23.10;100.00
46718;BME280;32448;44.960;-0.698;2023-09-19T12:51:08;101571.38;;;23.09;100.00
46718;BME280;32448;44.960;-0.698;2023-09-19T12:53:44;101557.38;;;23.00;100.00
46718;BME280;32448;44.960;-0.698;2023-09-19T12:56:17;101567.31;;;22.93;100.00
46718;BME280;32448;44.960;-0.698;2023-09-19T12:58:56;101568.41;;;22.84;100.00
46718;BME280;32448;44.960;-0.698;2023-09-19T13:01:26;101578.25;;;22.79;100.00
46718;BME280;32448;44.960;-0.698;2023-09-19T13:04:16;101570.47;;;22.67;100.00
46718;BME280;32448;44.960;-0.698;2023-09-19T13:06:50;101545.06;;;22.51;100.00
46718;BME280;32448;44.960;-0.698;2023-09-19T13:09:19;101561.56;;;22.68;100.00
46718;BME280;32448;44.960;-0.698;2023-09-19T13:11:48;101547.84;;;22.90;100.00
46718;BME280;32448;44.960;-0.698;2023-09-19T13:17:03;101539.72;;;22.96;100.00
46718;BME280;32448;44.960;-0.698;2023-09-19T13:19:50;101534.22;;;23.02;100.00
46718;BME280;32448;44.960;-0.698;2023-09-19T13:22:42;101526.81;;;23.16;100.00
46718;BME280;32448;44.960;-0.698;2023-09-19T13:25:17;101527.50;;;23.24;100.00
46718;BME280;32448;44.960;-0.698;2023-09-19T13:27:53;101522.72;;;23.38;100.00
46718;BME280;32448;44.960;-0.698;2023-09-19T13:30:28;101516.38;;;23.42;100.00
46718;BME280;32448;44.960;-0.698;2023-09-19T13:33:05;101507.63;;;23.37;100.00